Time;durP1;ratioP1;P1;durP2;ratioP2;P2;SDS_P1;SDS_P2;PMS_P1;PMS_P2;Temp;Humidity;BMP_temperature;BMP_pressure;BME280_temperature;BME280_humidity;BME280_pressure;Samples;Min_cycle;Max_cycle;Signal;HPM_P1;HPM_P2
2023/05/08 00:01:44;;;;;;;75.60;49.75;;;;;;;-146.27;100.00;83027.06;5051139;28;20376;-74
2023/05/08 00:04:10;;;;;;;84.85;53.35;;;;;;;-146.27;100.00;83002.94;5051647;28;20863;-73
2023/05/08 00:06:35;;;;;;;78.47;48.95;;;;;;;-146.27;100.00;83035.09;5053011;28;20033;-72
2023/05/08 00:09:00;;;;;;;83.28;50.83;;;;;;;-146.27;100.00;83013.00;5051223;28;20045;-72
2023/05/08 00:11:26;;;;;;;75.60;48.80;;;;;;;-146.27;100.00;83031.06;5041285;28;20021;-72
2023/05/08 00:13:51;;;;;;;83.53;51.80;;;;;;;-146.27;100.00;83037.09;5045835;28;20040;-72
2023/05/08 00:16:17;;;;;;;81.93;51.72;;;;;;;-146.27;100.00;83053.16;5051306;28;20044;-72
2023/05/08 00:18:42;;;;;;;82.97;51.67;;;;;;;-146.27;100.00;83039.09;5040903;28;20060;-72
2023/05/08 00:21:07;;;;;;;78.90;49.33;;;;;;;-146.27;100.00;83027.06;5045710;28;20036;-73
2023/05/08 00:23:33;;;;;;;85.50;52.58;;;;;;;-146.27;100.00;83035.09;5044982;28;20158;-73
2023/05/08 00:25:59;;;;;;;78.60;46.88;;;;;;;-146.27;100.00;83071.25;5070699;28;20438;-73
2023/05/08 00:28:24;;;;;;;77.60;49.85;;;;;;;-146.27;100.00;83059.19;5048041;28;20109;-73
2023/05/08 00:30:49;;;;;;;82.60;50.63;;;;;;;-146.27;100.00;83075.28;5047505;28;20017;-73
2023/05/08 00:33:15;;;;;;;79.38;49.40;;;;;;;-146.27;100.00;83087.31;5046532;28;20559;-73
2023/05/08 00:35:41;;;;;;;89.53;52.65;;;;;;;-146.27;100.00;83087.31;5057160;28;20112;-72
2023/05/08 00:38:07;;;;;;;98.93;55.08;;;;;;;-146.27;100.00;83047.16;5049410;28;20075;-73
2023/05/08 00:40:32;;;;;;;89.55;53.13;;;;;;;-146.27;100.00;83083.31;5065989;28;20571;-73
2023/05/08 00:42:58;;;;;;;79.97;51.47;;;;;;;-146.27;100.00;83087.31;5049494;28;20028;-72
2023/05/08 00:45:23;;;;;;;92.07;54.38;;;;;;;-146.27;100.00;83093.34;5061545;28;20028;-73
2023/05/08 00:47:49;;;;;;;90.18;56.15;;;;;;;-146.27;100.00;83099.38;5056650;28;20040;-73
2023/05/08 00:50:15;;;;;;;91.18;52.42;;;;;;;-146.27;100.00;83095.38;5037052;28;20110;-72
2023/05/08 00:52:41;;;;;;;88.35;53.70;;;;;;;-146.27;100.00;83091.34;5038490;28;20589;-74
2023/05/08 00:55:07;;;;;;;95.88;57.10;;;;;;;-146.27;100.00;83095.38;5050392;28;20392;-73
2023/05/08 00:57:34;;;;;;;90.10;50.83;;;;;;;-146.27;100.00;83117.47;5050041;28;20109;-73
2023/05/08 01:00:02;;;;;;;94.32;54.97;;;;;;;-146.27;100.00;83101.38;5050278;28;20024;-73
2023/05/08 01:02:30;;;;;;;93.00;54.08;;;;;;;-146.27;100.00;83139.56;5048264;28;20029;-73
2023/05/08 01:04:56;;;;;;;84.93;51.03;;;;;;;-146.27;100.00;83145.59;5050545;28;20594;-73
2023/05/08 01:07:21;;;;;;;90.80;53.67;;;;;;;-146.27;100.00;83155.63;5050539;28;20017;-73
2023/05/08 01:09:47;;;;;;;99.43;55.80;;;;;;;-146.27;100.00;83095.38;5047700;28;20052;-73
2023/05/08 01:12:22;;;;;;;90.97;53.15;;;;;;;-146.27;100.00;83147.59;5050882;28;20155;-73
2023/05/08 01:15:11;;;;;;;91.88;53.33;;;;;;;-146.27;100.00;83195.81;5041105;28;20103;-73
2023/05/08 01:17:55;;;;;;;87.85;52.75;;;;;;;-146.27;100.00;83139.56;5030604;28;20105;-73
2023/05/08 01:20:39;;;;;;;;;;;;;;;-146.27;100.00;83191.81;5047982;28;20025;-73
2023/05/08 01:23:35;;;;;;;86.50;49.42;;;;;;;-146.27;100.00;83187.78;5050146;28;19917;-73
2023/05/08 01:26:26;;;;;;;89.70;52.47;;;;;;;-146.27;100.00;83141.56;5050415;28;20546;-73
2023/05/08 01:29:04;;;;;;;85.55;51.67;;;;;;;-146.27;100.00;83133.53;5040951;28;20035;-73
2023/05/08 01:31:53;;;;;;;94.55;55.50;;;;;;;-146.27;100.00;83155.63;5045920;28;20025;-72
2023/05/08 01:34:25;;;;;;;102.15;57.67;;;;;;;-146.27;100.00;83197.84;5034170;28;20036;-71
2023/05/08 01:36:56;;;;;;;101.95;56.88;;;;;;;-146.27;100.00;83151.63;5030020;28;20510;-71
2023/05/08 01:39:42;;;;;;;104.18;58.00;;;;;;;-146.27;100.00;83167.69;5041051;28;20122;-71
2023/05/08 01:42:40;;;;;;;94.13;55.15;;;;;;;-146.27;100.00;83153.63;5040978;28;20114;-71
2023/05/08 01:45:27;;;;;;;94.20;54.72;;;;;;;-146.27;100.00;83139.56;5042591;28;20077;-71
2023/05/08 01:48:12;;;;;;;100.65;56.10;;;;;;;-146.27;100.00;83169.69;5043757;28;20028;-71
2023/05/08 01:50:44;;;;;;;103.90;57.83;;;;;;;-146.27;100.00;83155.63;5050490;28;20025;-71
2023/05/08 01:53:18;;;;;;;99.40;58.08;;;;;;;-146.27;100.00;83185.78;5051071;28;20488;-71
2023/05/08 01:55:47;;;;;;;105.68;57.47;;;;;;;-146.27;100.00;83169.69;5036042;28;20543;-71
2023/05/08 01:58:13;;;;;;;95.93;54.15;;;;;;;-146.27;100.00;83197.84;5045838;28;20028;-71
2023/05/08 02:00:41;;;;;;;89.22;54.45;;;;;;;-146.27;100.00;83183.78;5054055;28;20031;-72
2023/05/08 02:03:09;;;;;;;92.35;51.38;;;;;;;-146.27;100.00;83191.81;5050178;28;20104;-72
2023/05/08 02:05:39;;;;;;;98.88;55.83;;;;;;;-146.27;100.00;83199.84;5050071;28;20828;-71
2023/05/08 02:08:08;;;;;;;83.97;50.60;;;;;;;-146.27;100.00;83167.69;5037379;28;20033;-71
2023/05/08 02:10:35;;;;;;;79.90;48.97;;;;;;;-146.27;100.00;83203.88;5052148;28;20443;-72
2023/05/08 02:13:03;;;;;;;92.45;51.45;;;;;;;-146.27;100.00;83219.94;5042422;28;20022;-72
2023/05/08 02:15:34;;;;;;;86.18;49.55;;;;;;;-146.27;100.00;83221.94;5053763;28;20043;-71
2023/05/08 02:18:03;;;;;;;80.90;48.22;;;;;;;-146.27;100.00;83203.88;5046131;28;20083;-71
2023/05/08 02:20:30;;;;;;;83.70;46.25;;;;;;;-146.27;100.00;83223.94;5035163;28;20048;-71
2023/05/08 02:22:56;;;;;;;82.22;45.78;;;;;;;-146.27;100.00;83209.88;5043461;28;20113;-72
2023/05/08 02:25:23;;;;;;;86.90;49.70;;;;;;;-146.27;100.00;83203.88;5052984;28;20060;-71
2023/05/08 02:27:52;;;;;;;84.82;45.88;;;;;;;-146.27;100.00;83227.97;5038935;28;20031;-70
2023/05/08 02:30:18;;;;;;;77.95;44.65;;;;;;;-146.27;100.00;83232.00;5047800;28;20036;-70
2023/05/08 02:32:46;;;;;;;79.68;45.15;;;;;;;-146.27;100.00;83223.94;5043926;28;20029;-71
2023/05/08 02:35:14;;;;;;;78.25;43.97;;;;;;;-146.27;100.00;83236.00;5033598;28;20025;-72
2023/05/08 02:37:49;;;;;;;76.47;44.90;;;;;;;-146.27;100.00;83225.97;5052550;28;20032;-72
2023/05/08 02:40:16;;;;;;;78.80;45.08;;;;;;;-146.27;100.00;83256.09;5041736;28;20036;-71
2023/05/08 02:42:42;;;;;;;85.68;47.00;;;;;;;-146.27;100.00;83205.88;5041496;28;20027;-71
2023/05/08 02:45:08;;;;;;;71.85;42.65;;;;;;;-146.27;100.00;83258.13;5053110;28;20028;-71
2023/05/08 02:48:09;;;;;;;77.25;43.55;;;;;;;-146.27;100.00;83242.03;5048719;28;20025;-72
2023/05/08 02:50:42;;;;;;;89.57;46.10;;;;;;;-146.27;100.00;83260.13;5033387;28;20045;-71
2023/05/08 02:53:12;;;;;;;80.63;44.92;;;;;;;-146.27;100.00;83211.91;5040678;28;20041;-71
2023/05/08 02:56:09;;;;;;;88.97;45.17;;;;;;;-146.27;100.00;83256.09;5032556;28;20677;-71
2023/05/08 02:58:47;;;;;;;82.70;44.47;;;;;;;-146.27;100.00;83252.09;5028680;28;20045;-71
2023/05/08 03:01:28;;;;;;;84.85;45.00;;;;;;;-146.27;100.00;83215.91;5044855;28;20070;-71
2023/05/08 03:04:05;;;;;;;95.20;46.03;;;;;;;-146.27;100.00;83274.19;5048165;28;20033;-71
2023/05/08 03:06:39;;;;;;;86.97;45.40;;;;;;;-146.27;100.00;83296.28;5052498;28;20505;-71
2023/05/08 03:09:06;;;;;;;98.55;45.85;;;;;;;-146.27;100.00;83280.22;5042100;28;20124;-72
2023/05/08 03:11:39;;;;;;;86.45;43.10;;;;;;;-146.27;100.00;83308.34;5051651;28;20036;-71
2023/05/08 03:14:08;;;;;;;93.03;45.25;;;;;;;-146.27;100.00;83260.13;5050868;28;20036;-71
2023/05/08 03:16:36;;;;;;;85.10;44.47;;;;;;;-146.27;100.00;83292.28;5071481;28;20040;-71
2023/05/08 03:19:06;;;;;;;76.85;42.67;;;;;;;-146.27;100.00;83252.09;5040379;28;20025;-71
2023/05/08 03:21:33;;;;;;;82.63;41.10;;;;;;;-146.27;100.00;83312.34;5052303;28;20032;-71
2023/05/08 03:24:02;;;;;;;96.05;43.25;;;;;;;-146.27;100.00;83308.34;5051697;28;20082;-70
2023/05/08 03:26:27;;;;;;;76.40;40.95;;;;;;;-146.27;100.00;83322.41;5048181;28;20027;-71
2023/05/08 03:28:55;;;;;;;87.68;42.88;;;;;;;-146.27;100.00;83344.50;5050231;28;20532;-71
2023/05/08 03:31:21;;;;;;;78.22;43.03;;;;;;;-146.27;100.00;83286.25;5032157;28;20044;-72
2023/05/08 03:33:50;;;;;;;74.22;40.58;;;;;;;-146.27;100.00;83334.47;5032013;28;20033;-71
2023/05/08 03:36:16;;;;;;;89.13;42.17;;;;;;;-146.27;100.00;83338.47;5032144;28;20455;-71
2023/05/08 03:38:42;;;;;;;118.72;41.35;;;;;;;-146.27;100.00;83360.59;5039755;28;20107;-71
2023/05/08 03:41:08;;;;;;;116.55;41.17;;;;;;;-146.27;100.00;83402.78;5051245;28;20112;-71
2023/05/08 03:43:35;;;;;;;94.60;42.20;;;;;;;-146.27;100.00;83354.56;5050478;28;20548;-71
2023/05/08 03:46:01;;;;;;;94.18;41.20;;;;;;;-146.27;100.00;83348.53;5043170;28;20032;-71
2023/05/08 03:48:28;;;;;;;84.50;43.20;;;;;;;-146.27;100.00;83340.50;5049696;28;20115;-72
2023/05/08 03:50:54;;;;;;;77.45;40.53;;;;;;;-146.27;100.00;83344.50;5049820;28;20036;-71
2023/05/08 03:53:20;;;;;;;88.30;39.95;;;;;;;-146.27;100.00;83360.59;5050975;28;20036;-72
2023/05/08 03:55:45;;;;;;;143.65;41.13;;;;;;;-146.27;100.00;83328.44;5038665;28;20033;-72
2023/05/08 03:58:10;;;;;;;66.82;41.22;;;;;;;-146.27;100.00;83384.69;5050333;28;20480;-71
2023/05/08 04:00:58;;;;;;;71.55;42.80;;;;;;;-146.27;100.00;83342.50;5049301;28;20456;-71
2023/05/08 04:03:38;;;;;;;102.18;40.58;;;;;;;-146.27;100.00;83364.59;5047131;28;20024;-72
2023/05/08 04:06:29;;;;;;;126.38;38.72;;;;;;;-146.27;100.00;83398.75;5051667;28;20115;-71
2023/05/08 04:09:03;;;;;;;96.13;39.22;;;;;;;-146.27;100.00;83372.63;5056137;28;20037;-72
2023/05/08 04:11:41;;;;;;;105.22;38.58;;;;;;;-146.27;100.00;83412.81;5038760;28;20037;-71
2023/05/08 04:14:12;;;;;;;84.60;39.10;;;;;;;-146.27;100.00;83380.69;5031708;28;20098;-72
2023/05/08 04:16:41;;;;;;;103.45;39.15;;;;;;;-146.27;100.00;83469.09;5046160;28;20465;-71
2023/05/08 04:19:17;;;;;;;102.40;40.25;;;;;;;-146.27;100.00;83430.91;5045446;28;20436;-70
2023/05/08 04:21:44;;;;;;;73.43;39.03;;;;;;;-146.27;100.00;83412.81;5029314;28;20397;-72
2023/05/08 04:24:14;;;;;;;85.80;40.15;;;;;;;-146.27;100.00;83398.75;5032144;28;20056;-71
2023/05/08 04:26:41;;;;;;;78.15;38.10;;;;;;;-146.27;100.00;83420.88;5031042;28;20109;-71
2023/05/08 04:29:07;;;;;;;116.22;42.03;;;;;;;-146.27;100.00;83416.84;5047736;28;20673;-71
2023/05/08 04:31:34;;;;;;;105.43;43.72;;;;;;;-146.27;100.00;83360.59;5037151;28;20057;-71
2023/05/08 04:34:01;;;;;;;105.30;43.88;;;;;;;-146.27;100.00;83380.69;5041260;28;20128;-70
2023/05/08 04:36:30;;;;;;;90.05;42.63;;;;;;;-146.27;100.00;83416.84;5029506;28;20373;-71
2023/05/08 04:38:55;;;;;;;92.72;44.70;;;;;;;-146.27;100.00;83412.81;5035238;28;20033;-71
2023/05/08 04:41:21;;;;;;;125.07;45.38;;;;;;;-146.27;100.00;83390.72;5033831;28;20029;-70
2023/05/08 04:43:47;;;;;;;130.32;47.35;;;;;;;-146.27;100.00;83380.69;5054934;28;20495;-74
2023/05/08 04:46:13;;;;;;;91.85;43.58;;;;;;;-146.27;100.00;83360.59;5042616;28;20021;-72
2023/05/08 04:48:38;;;;;;;139.60;45.95;;;;;;;-146.27;100.00;83390.72;5043593;28;20368;-71
2023/05/08 04:51:04;;;;;;;110.38;44.63;;;;;;;-146.27;100.00;83354.56;5050150;28;20025;-70
2023/05/08 04:53:29;;;;;;;237.05;46.55;;;;;;;-146.27;100.00;83384.69;5031708;28;20029;-70
2023/05/08 04:55:56;;;;;;;124.72;43.50;;;;;;;-146.27;100.00;83394.75;5032381;28;20075;-70
2023/05/08 04:58:21;;;;;;;113.82;40.92;;;;;;;-146.27;100.00;83380.69;5040109;28;20017;-71
2023/05/08 05:00:46;;;;;;;179.10;43.45;;;;;;;-146.27;100.00;83374.66;5037208;28;20021;-72
2023/05/08 05:03:12;;;;;;;131.02;41.83;;;;;;;-146.27;100.00;83360.59;5050530;28;20052;-71
2023/05/08 05:05:37;;;;;;;341.45;42.88;;;;;;;-146.27;100.00;83364.59;5049660;28;20021;-70
2023/05/08 05:08:03;;;;;;;101.55;40.95;;;;;;;-146.27;100.00;83388.72;5049364;28;20174;-70
2023/05/08 05:10:29;;;;;;;84.70;38.10;;;;;;;-146.27;100.00;83338.47;5055674;28;20041;-70
2023/05/08 05:12:54;;;;;;;111.85;40.70;;;;;;;-146.27;100.00;83362.59;5046318;28;20032;-70
2023/05/08 05:15:19;;;;;;;91.38;39.60;;;;;;;-146.27;100.00;83368.63;5051416;28;20021;-71
2023/05/08 05:17:45;;;;;;;110.65;40.85;;;;;;;-146.27;100.00;83344.50;5046299;28;20160;-70
2023/05/08 05:20:11;;;;;;;90.53;39.20;;;;;;;-146.27;100.00;83356.56;5046994;28;20476;-72
2023/05/08 05:22:36;;;;;;;162.93;40.88;;;;;;;-146.27;100.00;83358.56;5047234;28;20039;-71
2023/05/08 05:25:01;;;;;;;105.57;36.95;;;;;;;-146.27;100.00;83386.69;5052208;28;20082;-71
2023/05/08 05:27:27;;;;;;;93.88;36.50;;;;;;;-146.27;100.00;83332.44;5038852;28;20029;-73
2023/05/08 05:29:52;;;;;;;118.90;38.05;;;;;;;-146.27;100.00;83364.59;5037172;28;20099;-70
2023/05/08 05:32:18;;;;;;;138.10;40.08;;;;;;;-146.27;100.00;83354.56;5048350;28;20064;-72
2023/05/08 05:34:43;;;;;;;94.13;39.28;;;;;;;-146.27;100.00;83340.50;5050411;28;20025;-71
2023/05/08 05:37:10;;;;;;;124.68;39.50;;;;;;;-146.27;100.00;83268.16;5038485;28;20024;-78
2023/05/08 05:39:36;;;;;;;99.82;38.17;;;;;;;-146.27;100.00;83410.81;5039906;28;20451;-72
2023/05/08 05:42:02;;;;;;;105.88;37.42;;;;;;;-146.27;100.00;83408.81;5057109;28;20078;-72
2023/05/08 05:44:27;;;;;;;111.57;39.22;;;;;;;-146.27;100.00;83298.28;5058033;28;20025;-72
2023/05/08 05:46:53;;;;;;;106.45;38.33;;;;;;;-146.27;100.00;83314.38;5048172;28;20484;-71
2023/05/08 05:49:18;;;;;;;118.20;38.22;;;;;;;-146.27;100.00;83310.34;5050261;28;20036;-71
2023/05/08 05:51:44;;;;;;;125.70;41.30;;;;;;;-146.27;100.00;83280.22;5040671;28;20053;-71
2023/05/08 05:54:09;;;;;;;100.25;37.90;;;;;;;-146.27;100.00;83292.28;5042734;28;20029;-71
2023/05/08 05:56:34;;;;;;;112.85;38.45;;;;;;;-146.27;100.00;83292.28;5032137;28;20032;-70
2023/05/08 05:59:00;;;;;;;86.13;33.20;;;;;;;-146.27;100.00;83248.06;5040089;28;20385;-72
2023/05/08 06:01:27;;;;;;;87.95;28.05;;;;;;;-146.27;100.00;83278.19;5045783;28;20013;-69
2023/05/08 06:03:53;;;;;;;69.28;28.02;;;;;;;-146.27;100.00;83272.19;5053460;28;20040;-71
2023/05/08 06:06:18;;;;;;;83.32;27.85;;;;;;;-146.27;100.00;83292.28;5046565;28;20033;-72
2023/05/08 06:08:43;;;;;;;76.35;27.67;;;;;;;-146.27;100.00;83264.13;5046344;28;20076;-71
2023/05/08 06:11:09;;;;;;;80.07;27.60;;;;;;;-146.27;100.00;83266.16;5048052;28;20648;-74
2023/05/08 06:13:34;;;;;;;77.93;26.45;;;;;;;-146.27;100.00;83252.09;5045625;28;20472;-70
2023/05/08 06:15:59;;;;;;;75.22;25.50;;;;;;;-146.27;100.00;83215.91;5059281;28;20115;-70
2023/05/08 06:18:25;;;;;;;76.88;25.20;;;;;;;-146.27;100.00;83256.09;5049809;28;20430;-72
2023/05/08 06:20:57;;;;;;;78.63;24.63;;;;;;;-146.27;100.00;83264.13;5046759;28;20027;-71
2023/05/08 06:23:23;;;;;;;85.00;25.35;;;;;;;-146.27;100.00;83191.81;5055899;28;20036;-71
2023/05/08 06:25:48;;;;;;;79.90;25.83;;;;;;;-146.27;100.00;83203.88;5051332;28;20542;-70
2023/05/08 06:28:14;;;;;;;78.25;26.58;;;;;;;-146.27;100.00;83189.78;5047330;28;20033;-71
2023/05/08 06:30:39;;;;;;;78.63;24.70;;;;;;;-146.27;100.00;83215.91;5052879;28;20028;-70
2023/05/08 06:33:05;;;;;;;86.25;26.58;;;;;;;-146.27;100.00;83179.75;5053151;28;20029;-70
2023/05/08 06:35:30;;;;;;;86.07;22.95;;;;;;;-146.27;100.00;83169.69;5053180;28;20021;-69
2023/05/08 06:37:56;;;;;;;86.63;25.38;;;;;;;-146.27;100.00;83107.41;5052679;28;20060;-69
2023/05/08 06:40:22;;;;;;;93.38;24.63;;;;;;;-146.27;100.00;83147.59;5044611;28;20040;-70
2023/05/08 06:42:47;;;;;;;96.97;25.67;;;;;;;-146.27;100.00;83139.56;5048069;28;20032;-69
2023/05/08 06:45:13;;;;;;;108.13;28.52;;;;;;;-146.27;100.00;83123.50;5072477;28;20031;-69
2023/05/08 06:47:38;;;;;;;82.18;24.42;;;;;;;-146.27;100.00;83111.44;5033056;28;20033;-69
2023/05/08 06:50:04;;;;;;;90.78;24.73;;;;;;;-146.27;100.00;83051.16;5047939;28;20426;-69
2023/05/08 06:52:30;;;;;;;93.68;26.73;;;;;;;-146.27;100.00;83095.38;5039381;28;20029;-67
2023/05/08 06:54:55;;;;;;;95.13;27.23;;;;;;;-146.27;100.00;83081.31;5046542;28;20424;-68
2023/05/08 06:57:20;;;;;;;89.07;28.50;;;;;;;-146.27;100.00;83085.31;5064494;28;20524;-69
2023/05/08 06:59:46;;;;;;;92.28;25.52;;;;;;;-146.27;100.00;83069.25;5069799;28;20476;-68
2023/05/08 07:02:11;;;;;;;84.32;28.00;;;;;;;-146.27;100.00;83045.13;5055525;28;20370;-69
2023/05/08 07:04:37;;;;;;;85.82;25.58;;;;;;;-146.27;100.00;83063.22;5058724;28;20494;-70
2023/05/08 07:07:02;;;;;;;94.38;27.67;;;;;;;-146.27;100.00;83059.19;5042535;28;20033;-70
2023/05/08 07:09:28;;;;;;;84.32;26.77;;;;;;;-146.27;100.00;83051.16;5052017;28;20120;-70
2023/05/08 07:11:53;;;;;;;95.53;27.00;;;;;;;-146.27;100.00;82986.88;5054182;28;20048;-69
2023/05/08 07:14:18;;;;;;;100.80;29.45;;;;;;;-146.27;100.00;82990.88;5054753;28;20476;-71
2023/05/08 07:16:44;;;;;;;89.30;27.58;;;;;;;-146.27;100.00;83004.94;5039010;28;20022;-69
2023/05/08 07:19:10;;;;;;;97.05;26.60;;;;;;;-146.27;100.00;82994.91;5038323;28;20112;-69
2023/05/08 07:21:35;;;;;;;98.50;28.77;;;;;;;-146.27;100.00;82978.84;5054026;28;20464;-69
2023/05/08 07:24:01;;;;;;;91.80;27.48;;;;;;;-146.27;100.00;82972.81;5054057;28;20115;-70
2023/05/08 07:26:26;;;;;;;87.57;29.88;;;;;;;-146.27;100.00;82962.75;5035580;28;20091;-69
2023/05/08 07:28:53;;;;;;;94.07;29.75;;;;;;;-146.27;100.00;82938.66;5036734;28;20036;-70
2023/05/08 07:31:19;;;;;;;91.18;30.85;;;;;;;-146.27;100.00;82932.63;5042468;28;20465;-70
2023/05/08 07:33:45;;;;;;;77.97;27.80;;;;;;;-146.27;100.00;82862.31;5059703;28;20032;-70
2023/05/08 07:36:11;;;;;;;91.70;29.92;;;;;;;-146.27;100.00;82882.41;5038930;28;20115;-70
2023/05/08 07:38:36;;;;;;;88.65;30.38;;;;;;;-146.27;100.00;82858.28;5044851;28;20105;-70
2023/05/08 07:41:04;;;;;;;87.03;30.98;;;;;;;-146.27;100.00;82854.28;5044508;28;20034;-70
2023/05/08 07:43:29;;;;;;;90.35;31.05;;;;;;;-146.27;100.00;82880.41;5037760;28;20108;-70
2023/05/08 07:45:55;;;;;;;87.65;31.77;;;;;;;-146.27;100.00;82894.47;5043296;28;20108;-71
2023/05/08 07:48:20;;;;;;;77.53;29.80;;;;;;;-146.27;100.00;82834.19;5059705;28;20066;-68
2023/05/08 07:50:47;;;;;;;85.05;29.55;;;;;;;-146.27;100.00;82826.16;5051802;28;20029;-69
2023/05/08 07:53:13;;;;;;;73.57;27.92;;;;;;;-146.27;100.00;82852.25;5054428;28;20032;-70
2023/05/08 07:55:38;;;;;;;65.68;26.13;;;;;;;-146.27;100.00;82812.09;5050703;28;20537;-69
2023/05/08 07:58:03;;;;;;;71.88;27.63;;;;;;;-146.27;100.00;82810.06;5049811;28;20040;-69
2023/05/08 08:00:29;;;;;;;76.50;29.35;;;;;;;-146.27;100.00;82785.97;5058362;28;20017;-70
2023/05/08 08:02:54;;;;;;;75.82;30.08;;;;;;;-146.27;100.00;82771.91;5050770;28;20112;-70
2023/05/08 08:05:20;;;;;;;71.78;30.83;;;;;;;-146.27;100.00;82810.06;5051840;28;20028;-69
2023/05/08 08:07:45;;;;;;;80.70;29.73;;;;;;;-146.27;100.00;82765.88;5057774;28;20020;-69
2023/05/08 08:10:11;;;;;;;77.40;29.73;;;;;;;-146.27;100.00;82763.88;5061589;28;20056;-70
2023/05/08 08:12:37;;;;;;;79.95;30.98;;;;;;;-146.27;100.00;82765.88;5055822;28;20500;-69
2023/05/08 08:15:03;;;;;;;76.25;26.90;;;;;;;-146.27;100.00;82773.91;5061610;28;20519;-69
2023/05/08 08:17:29;;;;;;;66.03;27.02;;;;;;;-146.27;100.00;82705.59;5048336;28;20113;-70
2023/05/08 08:19:54;;;;;;;74.70;29.42;;;;;;;-146.27;100.00;82625.25;5043774;28;20024;-68
2023/05/08 08:22:19;;;;;;;76.63;28.02;;;;;;;-146.27;100.00;82673.47;5067892;28;20041;-69
2023/05/08 08:24:45;;;;;;;71.70;26.85;;;;;;;-146.27;100.00;82663.41;5067950;28;20531;-68
2023/05/08 08:27:11;;;;;;;64.75;26.42;;;;;;;-146.27;100.00;82659.41;5047383;28;20437;-68
2023/05/08 08:29:36;;;;;;;63.08;26.27;;;;;;;-146.27;100.00;82669.44;5049834;28;20050;-70
2023/05/08 08:32:02;;;;;;;66.65;24.23;;;;;;;-146.27;100.00;82637.31;5061155;28;20408;-70
2023/05/08 08:34:28;;;;;;;67.15;25.80;;;;;;;-146.27;100.00;82573.00;5051342;28;20462;-68
2023/05/08 08:36:53;;;;;;;74.07;26.58;;;;;;;-146.27;100.00;82601.16;5055013;28;20079;-71
2023/05/08 08:39:19;;;;;;;61.45;24.92;;;;;;;-146.27;100.00;82569.00;5040681;28;20028;-68
2023/05/08 08:41:44;;;;;;;55.00;22.60;;;;;;;-146.27;100.00;82571.00;5041827;28;20016;-70
2023/05/08 08:44:10;;;;;;;53.15;21.40;;;;;;;-146.27;100.00;82544.91;5058160;28;20472;-70
2023/05/08 08:46:42;;;;;;;52.13;21.05;;;;;;;-146.27;100.00;82542.88;5043685;28;20050;-70
2023/05/08 08:49:09;;;;;;;56.92;23.42;;;;;;;-146.27;100.00;82480.59;5041176;28;20424;-69
2023/05/08 08:51:57;;;;;;;47.42;19.30;;;;;;;-146.27;100.00;82492.66;5065160;28;20369;-71
2023/05/08 08:54:23;;;;;;;39.72;19.95;;;;;;;-146.27;100.00;82496.69;5039682;28;20028;-69
2023/05/08 08:56:50;;;;;;;46.47;19.40;;;;;;;-146.27;100.00;82504.72;5057042;28;20036;-71
2023/05/08 08:59:17;;;;;;;52.88;20.40;;;;;;;-146.27;100.00;82452.47;5056043;28;20472;-70
2023/05/08 09:01:48;;;;;;;44.05;19.92;;;;;;;-146.27;100.00;82404.28;5052589;28;20043;-69
2023/05/08 09:04:15;;;;;;;45.25;20.35;;;;;;;-146.27;100.00;82380.16;5059768;28;20422;-70
2023/05/08 09:06:41;;;;;;;45.92;20.63;;;;;;;-146.27;100.00;82392.22;5050292;28;20032;-70
2023/05/08 09:09:06;;;;;;;41.13;19.63;;;;;;;-146.27;100.00;82384.19;5061258;28;20197;-70
2023/05/08 09:11:35;;;;;;;43.08;18.65;;;;;;;-146.27;100.00;82331.97;5052683;28;20475;-69
2023/05/08 09:14:00;;;;;;;44.35;20.42;;;;;;;-146.27;100.00;82344.00;5049594;28;20107;-69
2023/05/08 09:16:27;;;;;;;48.95;19.75;;;;;;;-146.27;100.00;82346.03;5033229;28;20507;-76
2023/05/08 09:18:52;;;;;;;43.00;20.08;;;;;;;-146.27;100.00;82366.09;5047833;28;20031;-69
2023/05/08 09:21:19;;;;;;;40.45;18.42;;;;;;;-146.27;100.00;82329.94;5050795;28;20025;-69
2023/05/08 09:23:58;;;;;;;37.03;19.88;;;;;;;-146.27;100.00;82311.88;5040448;28;20487;-70
2023/05/08 09:26:38;;;;;;;42.83;20.98;;;;;;;-146.27;100.00;82283.75;5051244;28;20033;-69
2023/05/08 09:29:18;;;;;;;44.80;21.52;;;;;;;-146.27;100.00;82291.78;5033247;28;20052;-69
2023/05/08 09:31:46;;;;;;;48.40;24.27;;;;;;;-146.27;100.00;82299.81;5032194;28;20083;-70
2023/05/08 09:34:32;;;;;;;56.95;28.75;;;;;;;-146.27;100.00;82315.88;5046255;28;20021;-69
2023/05/08 09:37:03;;;;;;;62.13;28.15;;;;;;;-146.27;100.00;82283.75;5047006;28;20029;-70
2023/05/08 09:39:28;;;;;;;60.13;28.65;;;;;;;-146.27;100.00;82273.72;5055558;28;20033;-70
2023/05/08 09:42:02;;;;;;;50.38;26.80;;;;;;;-146.27;100.00;82333.97;5061708;28;20036;-69
2023/05/08 09:44:28;;;;;;;51.47;26.65;;;;;;;-146.27;100.00;82311.88;5042220;28;20482;-69
2023/05/08 09:47:23;;;;;;;53.50;27.33;;;;;;;-146.27;100.00;82283.75;5039450;28;20079;-69
2023/05/08 09:50:03;;;;;;;53.20;26.90;;;;;;;-146.27;100.00;82195.38;5041076;28;20083;-71
2023/05/08 09:52:31;;;;;;;64.75;26.75;;;;;;;-146.27;100.00;82235.53;5039105;28;20028;-69
2023/05/08 09:55:09;;;;;;;67.10;28.42;;;;;;;-146.27;100.00;82275.72;5058079;28;20028;-69
2023/05/08 09:57:38;;;;;;;61.97;27.33;;;;;;;-146.27;100.00;82207.41;5046737;28;20021;-69
2023/05/08 10:00:07;;;;;;;53.92;27.08;;;;;;;-146.27;100.00;82231.53;5043399;28;20082;-69
2023/05/08 10:02:33;;;;;;;66.93;28.00;;;;;;;-146.27;100.00;82211.44;5050360;28;20029;-70
2023/05/08 10:04:59;;;;;;;59.55;27.55;;;;;;;-146.27;100.00;82199.38;5058001;28;20058;-71
2023/05/08 10:07:32;;;;;;;54.20;26.33;;;;;;;-146.27;100.00;82195.38;5053802;28;20810;-72
2023/05/08 10:10:03;;;;;;;54.88;25.75;;;;;;;-146.27;100.00;82213.44;5061846;28;20040;-71
2023/05/08 10:12:29;;;;;;;51.47;24.42;;;;;;;-146.27;100.00;82187.31;5066438;28;20036;-71
2023/05/08 10:14:55;;;;;;;55.20;26.90;;;;;;;-146.27;100.00;82207.41;5062898;28;20040;-71
2023/05/08 10:17:39;;;;;;;47.80;24.10;;;;;;;-146.27;100.00;82139.13;5060440;28;20124;-71
2023/05/08 10:20:06;;;;;;;43.55;23.45;;;;;;;-146.27;100.00;82143.13;5052974;28;20025;-73
2023/05/08 10:22:36;;;;;;;45.55;22.95;;;;;;;-146.27;100.00;82139.13;5053543;28;20036;-70
2023/05/08 10:25:02;;;;;;;41.78;22.27;;;;;;;-146.27;100.00;82113.00;5064645;28;20089;-72
2023/05/08 10:28:01;;;;;;;35.97;21.27;;;;;;;-146.27;100.00;82038.69;5059389;28;20084;-72
2023/05/08 10:30:29;;;;;;;28.90;18.45;;;;;;;-146.27;98.36;82022.63;5057425;28;20544;-73
2023/05/08 10:32:58;;;;;;;37.78;19.25;;;;;;;-146.27;99.46;81958.34;5069561;28;20020;-72
2023/05/08 10:35:24;;;;;;;33.55;19.73;;;;;;;-146.27;99.24;81817.75;5068303;28;20037;-70
2023/05/08 10:37:55;;;;;;;29.77;19.15;;;;;;;-146.27;95.59;81843.84;5048914;28;20032;-70
2023/05/08 10:40:21;;;;;;;31.10;20.02;;;;;;;-146.27;96.10;81908.13;5063915;28;20028;-71
2023/05/08 10:42:47;;;;;;;38.90;22.90;;;;;;;-146.27;96.67;81890.06;5051760;28;20056;-71
2023/05/08 10:45:13;;;;;;;42.92;26.13;;;;;;;-146.27;96.05;81956.34;5068500;28;20471;-71
2023/05/08 10:47:47;;;;;;;36.45;25.27;;;;;;;-146.27;96.82;81956.34;5040167;28;20063;-71
2023/05/08 10:50:32;;;;;;;37.28;26.30;;;;;;;-146.27;97.65;81974.41;5059516;28;20104;-70
2023/05/08 10:53:19;;;;;;;36.28;26.10;;;;;;;-146.27;94.92;81950.31;5039726;28;20048;-71
2023/05/08 10:55:48;;;;;;;38.63;27.08;;;;;;;-146.27;96.06;81938.25;5040618;28;20491;-73
2023/05/08 10:58:29;;;;;;;39.17;25.45;;;;;;;-146.27;96.21;81888.03;5049202;28;20143;-71
2023/05/08 11:01:05;;;;;;;32.58;24.10;;;;;;;-146.27;95.87;81753.47;5036290;28;20567;-73
2023/05/08 11:03:32;;;;;;;34.33;24.95;;;;;;;-146.27;89.83;81763.50;5067817;28;20361;-71